sensor_id;sensor_type;location;lat;lon;timestamp;temperature;humidity
19862;DHT22;10093;48.148;8.542;2022-08-21T00:00:55;10.50;99.90
19862;DHT22;10093;48.148;8.542;2022-08-21T00:03:21;10.30;99.90
19862;DHT22;10093;48.148;8.542;2022-08-21T00:05:49;10.20;99.90
19862;DHT22;10093;48.148;8.542;2022-08-21T00:08:16;10.20;99.90
19862;DHT22;10093;48.148;8.542;2022-08-21T00:10:43;10.30;99.90
19862;DHT22;10093;48.148;8.542;2022-08-21T00:13:10;10.20;99.90
19862;DHT22;10093;48.148;8.542;2022-08-21T00:15:37;10.20;99.90
19862;DHT22;10093;48.148;8.542;2022-08-21T00:18:05;10.50;99.90
19862;DHT22;10093;48.148;8.542;2022-08-21T00:20:31;10.40;99.90
19862;DHT22;10093;48.148;8.542;2022-08-21T00:22:57;10.20;99.90
19862;DHT22;10093;48.148;8.542;2022-08-21T00:25:23;10.10;99.90
19862;DHT22;10093;48.148;8.542;2022-08-21T00:27:49;10.20;99.90
19862;DHT22;10093;48.148;8.542;2022-08-21T00:30:16;10.10;99.90
19862;DHT22;10093;48.148;8.542;2022-08-21T00:32:43;10.00;99.90
19862;DHT22;10093;48.148;8.542;2022-08-21T00:35:11;9.80;99.90
19862;DHT22;10093;48.148;8.542;2022-08-21T00:37:39;9.70;99.90
19862;DHT22;10093;48.148;8.542;2022-08-21T00:40:06;9.70;99.90
19862;DHT22;10093;48.148;8.542;2022-08-21T00:42:32;9.60;99.90
19862;DHT22;10093;48.148;8.542;2022-08-21T00:44:58;9.60;99.90
19862;DHT22;10093;48.148;8.542;2022-08-21T00:47:25;9.70;99.90
19862;DHT22;10093;48.148;8.542;2022-08-21T00:49:50;9.70;99.90
19862;DHT22;10093;48.148;8.542;2022-08-21T00:52:21;9.80;99.90
19862;DHT22;10093;48.148;8.542;2022-08-21T00:54:48;9.90;99.90
19862;DHT22;10093;48.148;8.542;2022-08-21T00:57:22;10.00;99.90
19862;DHT22;10093;48.148;8.542;2022-08-21T00:59:51;10.10;99.90
19862;DHT22;10093;48.148;8.542;2022-08-21T01:02:19;10.10;99.90
19862;DHT22;10093;48.148;8.542;2022-08-21T01:04:45;10.10;99.90
19862;DHT22;10093;48.148;8.542;2022-08-21T01:07:11;10.00;99.90
19862;DHT22;10093;48.148;8.542;2022-08-21T01:09:38;9.90;99.90
19862;DHT22;10093;48.148;8.542;2022-08-21T01:12:04;9.70;99.90
19862;DHT22;10093;48.148;8.542;2022-08-21T01:14:31;9.90;99.90
19862;DHT22;10093;48.148;8.542;2022-08-21T01:16:58;10.00;99.90
19862;DHT22;10093;48.148;8.542;2022-08-21T01:19:28;9.90;99.90
19862;DHT22;10093;48.148;8.542;2022-08-21T01:21:54;9.80;99.90
19862;DHT22;10093;48.148;8.542;2022-08-21T01:24:20;9.80;99.90
19862;DHT22;10093;48.148;8.542;2022-08-21T01:26:46;9.80;99.90
19862;DHT22;10093;48.148;8.542;2022-08-21T01:32:12;9.60;99.90
19862;DHT22;10093;48.148;8.542;2022-08-21T01:34:41;9.40;99.90
19862;DHT22;10093;48.148;8.542;2022-08-21T01:37:07;9.30;99.90
19862;DHT22;10093;48.148;8.542;2022-08-21T01:39:34;9.30;99.90
19862;DHT22;10093;48.148;8.542;2022-08-21T01:42:00;9.30;99.90
19862;DHT22;10093;48.148;8.542;2022-08-21T01:44:26;9.30;99.90
19862;DHT22;10093;48.148;8.542;2022-08-21T01:46:54;9.30;99.90
19862;DHT22;10093;48.148;8.542;2022-08-21T01:49:20;9.20;99.90
19862;DHT22;10093;48.148;8.542;2022-08-21T01:51:46;9.20;99.90
19862;DHT22;10093;48.148;8.542;2022-08-21T01:54:12;9.30;99.90
19862;DHT22;10093;48.148;8.542;2022-08-21T01:56:43;9.20;99.90
19862;DHT22;10093;48.148;8.542;2022-08-21T01:59:10;9.20;99.90
19862;DHT22;10093;48.148;8.542;2022-08-21T02:01:36;9.10;99.90
19862;DHT22;10093;48.148;8.542;2022-08-21T02:04:02;9.00;99.90
19862;DHT22;10093;48.148;8.542;2022-08-21T02:06:28;9.00;99.90
19862;DHT22;10093;48.148;8.542;2022-08-21T02:08:54;9.30;99.90
19862;DHT22;10093;48.148;8.542;2022-08-21T02:11:19;9.60;99.90
19862;DHT22;10093;48.148;8.542;2022-08-21T02:13:45;9.70;99.90
19862;DHT22;10093;48.148;8.542;2022-08-21T02:16:11;9.70;99.90
19862;DHT22;10093;48.148;8.542;2022-08-21T02:18:37;9.70;99.90
19862;DHT22;10093;48.148;8.542;2022-08-21T02:21:05;9.80;99.90
19862;DHT22;10093;48.148;8.542;2022-08-21T02:23:31;9.80;99.90
19862;DHT22;10093;48.148;8.542;2022-08-21T02:25:58;9.70;99.90
19862;DHT22;10093;48.148;8.542;2022-08-21T02:28:24;9.60;99.90
19862;DHT22;10093;48.148;8.542;2022-08-21T02:30:51;9.70;99.90
19862;DHT22;10093;48.148;8.542;2022-08-21T02:33:17;9.80;99.90
19862;DHT22;10093;48.148;8.542;2022-08-21T02:35:45;9.60;99.90
19862;DHT22;10093;48.148;8.542;2022-08-21T02:38:17;9.50;99.90
19862;DHT22;10093;48.148;8.542;2022-08-21T02:40:46;9.40;99.90
19862;DHT22;10093;48.148;8.542;2022-08-21T02:43:12;9.20;99.90
19862;DHT22;10093;48.148;8.542;2022-08-21T02:45:38;9.00;99.90
19862;DHT22;10093;48.148;8.542;2022-08-21T02:48:10;8.90;99.90
19862;DHT22;10093;48.148;8.542;2022-08-21T02:50:42;8.90;99.90
19862;DHT22;10093;48.148;8.542;2022-08-21T02:53:09;9.10;99.90
19862;DHT22;10093;48.148;8.542;2022-08-21T02:55:36;9.10;99.90
19862;DHT22;10093;48.148;8.542;2022-08-21T02:58:05;9.30;99.90
19862;DHT22;10093;48.148;8.542;2022-08-21T03:00:32;9.20;99.90
19862;DHT22;10093;48.148;8.542;2022-08-21T03:02:58;8.90;99.90
19862;DHT22;10093;48.148;8.542;2022-08-21T03:05:25;8.70;99.90
19862;DHT22;10093;48.148;8.542;2022-08-21T03:07:51;8.60;99.90
19862;DHT22;10093;48.148;8.542;2022-08-21T03:10:18;8.90;99.90
19862;DHT22;10093;48.148;8.542;2022-08-21T03:12:45;8.90;99.90
19862;DHT22;10093;48.148;8.542;2022-08-21T03:15:13;8.80;99.90
19862;DHT22;10093;48.148;8.542;2022-08-21T03:17:39;8.90;99.90
19862;DHT22;10093;48.148;8.542;2022-08-21T03:20:06;8.80;99.90
19862;DHT22;10093;48.148;8.542;2022-08-21T03:22:32;8.60;99.90
19862;DHT22;10093;48.148;8.542;2022-08-21T03:24:58;8.40;99.90
19862;DHT22;10093;48.148;8.542;2022-08-21T03:27:24;8.30;99.90
19862;DHT22;10093;48.148;8.542;2022-08-21T03:29:52;8.30;99.90
19862;DHT22;10093;48.148;8.542;2022-08-21T03:32:17;8.20;99.90
19862;DHT22;10093;48.148;8.542;2022-08-21T03:34:44;8.20;99.90
19862;DHT22;10093;48.148;8.542;2022-08-21T03:37:09;8.20;99.90
19862;DHT22;10093;48.148;8.542;2022-08-21T03:39:36;8.00;99.90
19862;DHT22;10093;48.148;8.542;2022-08-21T03:42:02;8.00;99.90
19862;DHT22;10093;48.148;8.542;2022-08-21T03:44:27;8.40;99.90
19862;DHT22;10093;48.148;8.542;2022-08-21T03:46:57;8.60;99.90
19862;DHT22;10093;48.148;8.542;2022-08-21T03:49:24;8.70;99.90
19862;DHT22;10093;48.148;8.542;2022-08-21T03:51:50;8.70;99.90
19862;DHT22;10093;48.148;8.542;2022-08-21T03:54:15;8.50;99.90
19862;DHT22;10093;48.148;8.542;2022-08-21T03:56:41;8.30;99.90
19862;DHT22;10093;48.148;8.542;2022-08-21T03:59:07;8.10;99.90
19862;DHT22;10093;48.148;8.542;2022-08-21T04:01:33;7.90;99.90
19862;DHT22;10093;48.148;8.542;2022-08-21T04:03:59;7.90;99.90
19862;DHT22;10093;48.148;8.542;2022-08-21T04:06:25;8.30;99.90
19862;DHT22;10093;48.148;8.542;2022-08-21T04:08:52;8.20;99.90
19862;DHT22;10093;48.148;8.542;2022-08-21T04:11:18;8.40;99.90
19862;DHT22;10093;48.148;8.542;2022-08-21T04:13:43;8.40;99.90
19862;DHT22;10093;48.148;8.542;2022-08-21T04:16:09;8.30;99.90
19862;DHT22;10093;48.148;8.542;2022-08-21T04:18:35;8.20;99.90
19862;DHT22;10093;48.148;8.542;2022-08-21T04:21:02;8.20;99.90
19862;DHT22;10093;48.148;8.542;2022-08-21T04:23:28;8.40;99.90
19862;DHT22;10093;48.148;8.542;2022-08-21T04:25:55;8.20;99.90
19862;DHT22;10093;48.148;8.542;2022-08-21T04:28:22;8.30;99.90
19862;DHT22;10093;48.148;8.542;2022-08-21T04:30:49;8.10;99.90
19862;DHT22;10093;48.148;8.542;2022-08-21T04:33:15;8.00;99.90
19862;DHT22;10093;48.148;8.542;2022-08-21T04:35:41;7.80;99.90
19862;DHT22;10093;48.148;8.542;2022-08-21T04:38:08;7.80;99.90
19862;DHT22;10093;48.148;8.542;2022-08-21T04:40:34;7.80;99.90
19862;DHT22;10093;48.148;8.542;2022-08-21T04:43:05;7.80;99.90
19862;DHT22;10093;48.148;8.542;2022-08-21T04:45:34;8.00;99.90
19862;DHT22;10093;48.148;8.542;2022-08-21T04:48:02;7.90;99.90
19862;DHT22;10093;48.148;8.542;2022-08-21T04:50:56;8.00;99.90
19862;DHT22;10093;48.148;8.542;2022-08-21T04:56:01;8.00;99.90
19862;DHT22;10093;48.148;8.542;2022-08-21T04:58:28;8.00;99.90
19862;DHT22;10093;48.148;8.542;2022-08-21T05:00:56;8.00;99.90
19862;DHT22;10093;48.148;8.542;2022-08-21T05:03:23;8.10;99.90
19862;DHT22;10093;48.148;8.542;2022-08-21T05:05:49;8.20;99.90
19862;DHT22;10093;48.148;8.542;2022-08-21T05:08:19;8.20;99.90
19862;DHT22;10093;48.148;8.542;2022-08-21T05:10:46;8.50;99.90
19862;DHT22;10093;48.148;8.542;2022-08-21T05:13:13;8.50;99.90
19862;DHT22;10093;48.148;8.542;2022-08-21T05:15:40;9.10;99.90
19862;DHT22;10093;48.148;8.542;2022-08-21T05:18:06;10.30;99.90
19862;DHT22;10093;48.148;8.542;2022-08-21T05:20:32;11.60;99.90
19862;DHT22;10093;48.148;8.542;2022-08-21T05:23:00;12.60;99.90
19862;DHT22;10093;48.148;8.542;2022-08-21T05:25:26;13.50;99.90
19862;DHT22;10093;48.148;8.542;2022-08-21T05:27:51;14.00;99.90
19862;DHT22;10093;48.148;8.542;2022-08-21T05:30:19;14.70;99.90
19862;DHT22;10093;48.148;8.542;2022-08-21T05:32:46;15.30;99.90
19862;DHT22;10093;48.148;8.542;2022-08-21T05:35:12;15.70;99.90
19862;DHT22;10093;48.148;8.542;2022-08-21T05:37:39;16.30;99.90
19862;DHT22;10093;48.148;8.542;2022-08-21T05:40:05;17.30;99.90
19862;DHT22;10093;48.148;8.542;2022-08-21T05:42:32;18.10;99.90
19862;DHT22;10093;48.148;8.542;2022-08-21T05:44:58;18.70;99.90
19862;DHT22;10093;48.148;8.542;2022-08-21T05:47:23;19.50;99.90
19862;DHT22;10093;48.148;8.542;2022-08-21T05:49:49;20.20;99.90
19862;DHT22;10093;48.148;8.542;2022-08-21T05:52:19;20.50;99.90
19862;DHT22;10093;48.148;8.542;2022-08-21T05:54:45;20.70;99.90
19862;DHT22;10093;48.148;8.542;2022-08-21T05:57:11;21.20;99.90
19862;DHT22;10093;48.148;8.542;2022-08-21T05:59:36;21.60;99.90
19862;DHT22;10093;48.148;8.542;2022-08-21T06:02:03;21.40;99.90
19862;DHT22;10093;48.148;8.542;2022-08-21T06:04:29;20.50;99.90
19862;DHT22;10093;48.148;8.542;2022-08-21T06:06:55;20.20;99.90
19862;DHT22;10093;48.148;8.542;2022-08-21T06:09:20;21.00;99.90
19862;DHT22;10093;48.148;8.542;2022-08-21T06:11:46;21.50;99.90
19862;DHT22;10093;48.148;8.542;2022-08-21T06:14:14;22.20;99.90
19862;DHT22;10093;48.148;8.542;2022-08-21T06:16:40;23.00;99.90
19862;DHT22;10093;48.148;8.542;2022-08-21T06:19:05;23.60;99.90
19862;DHT22;10093;48.148;8.542;2022-08-21T06:21:31;24.10;99.90
19862;DHT22;10093;48.148;8.542;2022-08-21T06:23:57;24.90;99.90
19862;DHT22;10093;48.148;8.542;2022-08-21T06:26:22;25.60;99.90
19862;DHT22;10093;48.148;8.542;2022-08-21T06:28:49;26.10;99.90
19862;DHT22;10093;48.148;8.542;2022-08-21T06:31:20;25.80;99.90
19862;DHT22;10093;48.148;8.542;2022-08-21T06:33:47;26.00;99.90
19862;DHT22;10093;48.148;8.542;2022-08-21T06:36:13;26.10;99.90
19862;DHT22;10093;48.148;8.542;2022-08-21T06:38:39;24.90;99.90
19862;DHT22;10093;48.148;8.542;2022-08-21T06:41:04;26.50;99.90
19862;DHT22;10093;48.148;8.542;2022-08-21T06:43:30;26.40;99.90
19862;DHT22;10093;48.148;8.542;2022-08-21T06:45:56;26.40;99.90
19862;DHT22;10093;48.148;8.542;2022-08-21T06:48:22;25.70;99.90
19862;DHT22;10093;48.148;8.542;2022-08-21T06:50:48;24.70;99.90
19862;DHT22;10093;48.148;8.542;2022-08-21T06:53:18;23.30;99.90
19862;DHT22;10093;48.148;8.542;2022-08-21T06:55:44;22.50;99.90
19862;DHT22;10093;48.148;8.542;2022-08-21T06:58:11;21.50;99.90
19862;DHT22;10093;48.148;8.542;2022-08-21T07:00:43;21.50;99.90
19862;DHT22;10093;48.148;8.542;2022-08-21T07:03:27;20.50;99.90
19862;DHT22;10093;48.148;8.542;2022-08-21T07:05:53;18.70;99.90
19862;DHT22;10093;48.148;8.542;2022-08-21T07:08:20;18.10;99.90
19862;DHT22;10093;48.148;8.542;2022-08-21T07:10:46;18.20;99.90
19862;DHT22;10093;48.148;8.542;2022-08-21T07:13:13;18.70;99.90
19862;DHT22;10093;48.148;8.542;2022-08-21T07:15:39;18.90;99.90
19862;DHT22;10093;48.148;8.542;2022-08-21T07:18:04;18.70;99.90
19862;DHT22;10093;48.148;8.542;2022-08-21T07:20:33;18.80;99.90
19862;DHT22;10093;48.148;8.542;2022-08-21T07:23:02;18.80;99.90
19862;DHT22;10093;48.148;8.542;2022-08-21T07:25:29;19.10;99.90
19862;DHT22;10093;48.148;8.542;2022-08-21T07:27:54;20.00;99.90
19862;DHT22;10093;48.148;8.542;2022-08-21T07:30:21;20.20;99.90
19862;DHT22;10093;48.148;8.542;2022-08-21T07:32:47;21.10;99.90
19862;DHT22;10093;48.148;8.542;2022-08-21T07:35:15;21.70;99.90
19862;DHT22;10093;48.148;8.542;2022-08-21T07:37:41;23.70;99.90
19862;DHT22;10093;48.148;8.542;2022-08-21T07:40:07;26.50;99.90
19862;DHT22;10093;48.148;8.542;2022-08-21T07:42:33;28.20;99.90
19862;DHT22;10093;48.148;8.542;2022-08-21T07:44:59;27.30;99.90
19862;DHT22;10093;48.148;8.542;2022-08-21T07:47:24;28.40;99.90
19862;DHT22;10093;48.148;8.542;2022-08-21T07:49:50;27.70;99.90
19862;DHT22;10093;48.148;8.542;2022-08-21T07:52:16;27.40;99.90
19862;DHT22;10093;48.148;8.542;2022-08-21T07:54:41;28.10;99.90
19862;DHT22;10093;48.148;8.542;2022-08-21T07:57:07;27.70;99.90
19862;DHT22;10093;48.148;8.542;2022-08-21T07:59:33;30.10;99.90
19862;DHT22;10093;48.148;8.542;2022-08-21T08:01:58;30.50;99.90
19862;DHT22;10093;48.148;8.542;2022-08-21T08:04:24;31.80;99.90
19862;DHT22;10093;48.148;8.542;2022-08-21T08:06:50;33.40;99.90
19862;DHT22;10093;48.148;8.542;2022-08-21T08:09:15;31.50;99.90
19862;DHT22;10093;48.148;8.542;2022-08-21T08:11:42;32.00;99.90
19862;DHT22;10093;48.148;8.542;2022-08-21T08:14:10;33.10;99.90
19862;DHT22;10093;48.148;8.542;2022-08-21T08:16:36;34.50;98.50
19862;DHT22;10093;48.148;8.542;2022-08-21T08:19:02;36.10;98.80
19862;DHT22;10093;48.148;8.542;2022-08-21T08:21:28;34.80;96.90
19862;DHT22;10093;48.148;8.542;2022-08-21T08:23:54;33.70;97.60
19862;DHT22;10093;48.148;8.542;2022-08-21T08:26:19;34.80;96.70
19862;DHT22;10093;48.148;8.542;2022-08-21T08:28:45;34.00;97.00
19862;DHT22;10093;48.148;8.542;2022-08-21T08:31:13;31.70;98.90
19862;DHT22;10093;48.148;8.542;2022-08-21T08:33:39;31.00;99.90
19862;DHT22;10093;48.148;8.542;2022-08-21T08:36:05;30.50;99.90
19862;DHT22;10093;48.148;8.542;2022-08-21T08:38:31;30.90;99.90
19862;DHT22;10093;48.148;8.542;2022-08-21T08:41:08;31.40;99.90
19862;DHT22;10093;48.148;8.542;2022-08-21T08:43:37;31.70;99.90
19862;DHT22;10093;48.148;8.542;2022-08-21T08:46:10;30.10;99.90
19862;DHT22;10093;48.148;8.542;2022-08-21T08:48:57;31.50;99.90
19862;DHT22;10093;48.148;8.542;2022-08-21T08:54:25;33.70;97.90
19862;DHT22;10093;48.148;8.542;2022-08-21T08:56:58;33.90;98.00
19862;DHT22;10093;48.148;8.542;2022-08-21T08:59:27;32.90;97.30
19862;DHT22;10093;48.148;8.542;2022-08-21T09:01:55;32.10;97.80
19862;DHT22;10093;48.148;8.542;2022-08-21T09:04:25;32.00;98.40
19862;DHT22;10093;48.148;8.542;2022-08-21T09:07:04;28.70;99.10
19862;DHT22;10093;48.148;8.542;2022-08-21T09:18:34;30.90;99.90
19862;DHT22;10093;48.148;8.542;2022-08-21T09:26:57;31.40;98.10
19862;DHT22;10093;48.148;8.542;2022-08-21T09:29:29;30.70;98.40
19862;DHT22;10093;48.148;8.542;2022-08-21T09:31:57;32.40;98.50
19862;DHT22;10093;48.148;8.542;2022-08-21T09:34:30;34.60;95.60
19862;DHT22;10093;48.148;8.542;2022-08-21T09:36:57;34.90;96.80
19862;DHT22;10093;48.148;8.542;2022-08-21T09:39:41;34.80;95.20
19862;DHT22;10093;48.148;8.542;2022-08-21T09:42:08;33.80;94.60
19862;DHT22;10093;48.148;8.542;2022-08-21T09:44:39;31.60;96.00
19862;DHT22;10093;48.148;8.542;2022-08-21T09:47:07;32.50;95.60
19862;DHT22;10093;48.148;8.542;2022-08-21T09:49:36;32.00;95.30
19862;DHT22;10093;48.148;8.542;2022-08-21T09:52:04;31.70;95.70
19862;DHT22;10093;48.148;8.542;2022-08-21T09:54:36;28.70;97.90
19862;DHT22;10093;48.148;8.542;2022-08-21T09:59:54;29.90;97.80
19862;DHT22;10093;48.148;8.542;2022-08-21T10:02:34;31.90;99.70
19862;DHT22;10093;48.148;8.542;2022-08-21T10:05:20;31.80;98.20
19862;DHT22;10093;48.148;8.542;2022-08-21T10:07:48;32.70;96.20
19862;DHT22;10093;48.148;8.542;2022-08-21T10:10:25;28.60;97.60
19862;DHT22;10093;48.148;8.542;2022-08-21T10:20:52;28.70;97.90
19862;DHT22;10093;48.148;8.542;2022-08-21T10:26:05;30.70;98.20
19862;DHT22;10093;48.148;8.542;2022-08-21T10:31:35;28.40;98.90
19862;DHT22;10093;48.148;8.542;2022-08-21T10:34:33;28.00;99.30
19862;DHT22;10093;48.148;8.542;2022-08-21T10:39:52;31.80;95.60
19862;DHT22;10093;48.148;8.542;2022-08-21T10:42:35;31.40;97.80
19862;DHT22;10093;48.148;8.542;2022-08-21T10:48:06;29.60;99.10
19862;DHT22;10093;48.148;8.542;2022-08-21T10:50:52;28.10;99.70
19862;DHT22;10093;48.148;8.542;2022-08-21T10:56:24;26.60;99.50
19862;DHT22;10093;48.148;8.542;2022-08-21T11:04:23;26.00;99.90
19862;DHT22;10093;48.148;8.542;2022-08-21T11:06:57;26.90;99.90
19862;DHT22;10093;48.148;8.542;2022-08-21T11:09:26;28.80;98.70
19862;DHT22;10093;48.148;8.542;2022-08-21T11:12:02;29.50;96.90
19862;DHT22;10093;48.148;8.542;2022-08-21T11:14:58;30.50;97.00
19862;DHT22;10093;48.148;8.542;2022-08-21T11:17:42;29.90;95.10
19862;DHT22;10093;48.148;8.542;2022-08-21T11:23:50;29.80;95.80
19862;DHT22;10093;48.148;8.542;2022-08-21T11:26:43;28.40;96.20
19862;DHT22;10093;48.148;8.542;2022-08-21T11:32:00;30.10;93.90
19862;DHT22;10093;48.148;8.542;2022-08-21T11:34:54;29.00;97.10
19862;DHT22;10093;48.148;8.542;2022-08-21T11:40:24;29.50;93.70
19862;DHT22;10093;48.148;8.542;2022-08-21T11:42:55;32.10;92.50
19862;DHT22;10093;48.148;8.542;2022-08-21T11:45:43;32.80;92.50
19862;DHT22;10093;48.148;8.542;2022-08-21T11:50:44;34.40;92.60
19862;DHT22;10093;48.148;8.542;2022-08-21T11:53:36;34.50;87.30
19862;DHT22;10093;48.148;8.542;2022-08-21T11:56:24;34.40;85.40
19862;DHT22;10093;48.148;8.542;2022-08-21T11:59:04;32.90;90.00
19862;DHT22;10093;48.148;8.542;2022-08-21T12:01:36;32.90;88.80
19862;DHT22;10093;48.148;8.542;2022-08-21T12:04:24;33.10;90.20
19862;DHT22;10093;48.148;8.542;2022-08-21T12:06:50;33.70;88.40
19862;DHT22;10093;48.148;8.542;2022-08-21T12:12:21;32.20;90.30
19862;DHT22;10093;48.148;8.542;2022-08-21T12:14:51;31.70;90.70
19862;DHT22;10093;48.148;8.542;2022-08-21T12:17:36;30.90;91.30
19862;DHT22;10093;48.148;8.542;2022-08-21T12:20:18;27.60;91.20
19862;DHT22;10093;48.148;8.542;2022-08-21T12:23:01;28.20;93.20
19862;DHT22;10093;48.148;8.542;2022-08-21T12:25:40;30.80;91.90
19862;DHT22;10093;48.148;8.542;2022-08-21T12:28:09;32.20;88.20
19862;DHT22;10093;48.148;8.542;2022-08-21T12:30:43;31.00;90.80
19862;DHT22;10093;48.148;8.542;2022-08-21T12:36:21;33.40;86.80
19862;DHT22;10093;48.148;8.542;2022-08-21T12:39:02;33.10;85.40
19862;DHT22;10093;48.148;8.542;2022-08-21T12:41:43;33.00;82.30
19862;DHT22;10093;48.148;8.542;2022-08-21T12:44:14;33.10;85.70
19862;DHT22;10093;48.148;8.542;2022-08-21T12:46:46;33.60;85.40
19862;DHT22;10093;48.148;8.542;2022-08-21T12:49:16;33.80;87.70
19862;DHT22;10093;48.148;8.542;2022-08-21T12:51:55;33.70;86.10
19862;DHT22;10093;48.148;8.542;2022-08-21T12:54:27;33.00;88.10
19862;DHT22;10093;48.148;8.542;2022-08-21T12:57:01;29.00;90.80
19862;DHT22;10093;48.148;8.542;2022-08-21T12:59:28;27.80;92.50
19862;DHT22;10093;48.148;8.542;2022-08-21T13:01:55;29.80;92.10
19862;DHT22;10093;48.148;8.542;2022-08-21T13:04:28;28.30;91.20
19862;DHT22;10093;48.148;8.542;2022-08-21T13:06:58;29.10;93.20
19862;DHT22;10093;48.148;8.542;2022-08-21T13:09:28;29.80;91.00
19862;DHT22;10093;48.148;8.542;2022-08-21T13:11:55;29.60;93.30
19862;DHT22;10093;48.148;8.542;2022-08-21T13:14:42;31.00;88.70
19862;DHT22;10093;48.148;8.542;2022-08-21T13:17:10;30.50;85.80
19862;DHT22;10093;48.148;8.542;2022-08-21T13:19:36;29.70;88.70
19862;DHT22;10093;48.148;8.542;2022-08-21T13:22:03;29.70;90.80
19862;DHT22;10093;48.148;8.542;2022-08-21T13:24:38;28.10;90.60
19862;DHT22;10093;48.148;8.542;2022-08-21T13:27:56;28.30;91.30
19862;DHT22;10093;48.148;8.542;2022-08-21T13:32:41;29.30;89.60
19862;DHT22;10093;48.148;8.542;2022-08-21T13:35:14;30.50;88.20
19862;DHT22;10093;48.148;8.542;2022-08-21T13:37:42;30.90;87.90
19862;DHT22;10093;48.148;8.542;2022-08-21T13:40:12;30.20;90.30
19862;DHT22;10093;48.148;8.542;2022-08-21T13:42:41;31.10;90.30
19862;DHT22;10093;48.148;8.542;2022-08-21T13:45:13;31.50;90.20
19862;DHT22;10093;48.148;8.542;2022-08-21T13:47:39;32.40;85.20
19862;DHT22;10093;48.148;8.542;2022-08-21T13:50:06;32.00;84.00
19862;DHT22;10093;48.148;8.542;2022-08-21T13:52:33;31.90;86.30
19862;DHT22;10093;48.148;8.542;2022-08-21T13:55:12;30.80;86.80
19862;DHT22;10093;48.148;8.542;2022-08-21T13:57:38;30.50;86.00
19862;DHT22;10093;48.148;8.542;2022-08-21T14:00:13;29.50;86.80
19862;DHT22;10093;48.148;8.542;2022-08-21T14:02:41;30.20;85.80
19862;DHT22;10093;48.148;8.542;2022-08-21T14:05:47;30.30;90.10
19862;DHT22;10093;48.148;8.542;2022-08-21T14:08:27;30.50;88.50
19862;DHT22;10093;48.148;8.542;2022-08-21T14:10:54;30.70;87.70
19862;DHT22;10093;48.148;8.542;2022-08-21T14:16:01;30.30;88.80
19862;DHT22;10093;48.148;8.542;2022-08-21T14:18:28;31.70;88.80
19862;DHT22;10093;48.148;8.542;2022-08-21T14:21:07;31.70;87.10
19862;DHT22;10093;48.148;8.542;2022-08-21T14:23:33;32.10;89.80
19862;DHT22;10093;48.148;8.542;2022-08-21T14:26:02;33.20;86.90
19862;DHT22;10093;48.148;8.542;2022-08-21T14:28:34;31.70;84.00
19862;DHT22;10093;48.148;8.542;2022-08-21T14:31:15;30.20;85.70
19862;DHT22;10093;48.148;8.542;2022-08-21T14:33:41;29.00;90.40
19862;DHT22;10093;48.148;8.542;2022-08-21T14:36:07;28.30;86.40
19862;DHT22;10093;48.148;8.542;2022-08-21T14:38:37;27.60;88.70
19862;DHT22;10093;48.148;8.542;2022-08-21T14:41:11;27.10;91.60
19862;DHT22;10093;48.148;8.542;2022-08-21T14:43:41;27.20;90.80
19862;DHT22;10093;48.148;8.542;2022-08-21T14:46:06;28.40;92.10
19862;DHT22;10093;48.148;8.542;2022-08-21T14:48:32;27.90;91.10
19862;DHT22;10093;48.148;8.542;2022-08-21T14:50:57;29.60;90.00
19862;DHT22;10093;48.148;8.542;2022-08-21T14:53:24;30.70;86.40
19862;DHT22;10093;48.148;8.542;2022-08-21T14:55:49;31.20;89.70
19862;DHT22;10093;48.148;8.542;2022-08-21T14:58:30;31.70;86.50
19862;DHT22;10093;48.148;8.542;2022-08-21T15:00:56;31.40;86.70
19862;DHT22;10093;48.148;8.542;2022-08-21T15:03:24;31.50;84.50
19862;DHT22;10093;48.148;8.542;2022-08-21T15:05:49;31.30;86.60
19862;DHT22;10093;48.148;8.542;2022-08-21T15:08:16;31.80;86.70
19862;DHT22;10093;48.148;8.542;2022-08-21T15:10:41;30.10;82.90
19862;DHT22;10093;48.148;8.542;2022-08-21T15:13:07;28.00;86.90
19862;DHT22;10093;48.148;8.542;2022-08-21T15:15:39;27.60;90.00
19862;DHT22;10093;48.148;8.542;2022-08-21T15:18:05;27.80;90.10
19862;DHT22;10093;48.148;8.542;2022-08-21T15:20:31;27.60;85.80
19862;DHT22;10093;48.148;8.542;2022-08-21T15:22:57;28.20;87.20
19862;DHT22;10093;48.148;8.542;2022-08-21T15:25:23;29.40;89.40
19862;DHT22;10093;48.148;8.542;2022-08-21T15:27:48;28.80;88.90
19862;DHT22;10093;48.148;8.542;2022-08-21T15:30:14;28.20;88.00
19862;DHT22;10093;48.148;8.542;2022-08-21T15:32:40;28.30;88.10
19862;DHT22;10093;48.148;8.542;2022-08-21T15:35:07;27.20;90.30
19862;DHT22;10093;48.148;8.542;2022-08-21T15:37:33;26.10;91.00
19862;DHT22;10093;48.148;8.542;2022-08-21T15:39:59;25.50;90.80
19862;DHT22;10093;48.148;8.542;2022-08-21T15:42:25;25.10;92.40
19862;DHT22;10093;48.148;8.542;2022-08-21T15:44:55;24.80;93.20
19862;DHT22;10093;48.148;8.542;2022-08-21T15:47:31;25.00;91.90
19862;DHT22;10093;48.148;8.542;2022-08-21T15:49:57;25.50;92.90
19862;DHT22;10093;48.148;8.542;2022-08-21T15:52:23;25.40;91.40
19862;DHT22;10093;48.148;8.542;2022-08-21T15:54:49;25.10;93.40
19862;DHT22;10093;48.148;8.542;2022-08-21T15:57:17;25.00;91.70
19862;DHT22;10093;48.148;8.542;2022-08-21T15:59:47;25.00;92.40
19862;DHT22;10093;48.148;8.542;2022-08-21T16:02:17;24.90;91.40
19862;DHT22;10093;48.148;8.542;2022-08-21T16:04:44;25.00;91.30
19862;DHT22;10093;48.148;8.542;2022-08-21T16:07:10;24.80;92.10
19862;DHT22;10093;48.148;8.542;2022-08-21T16:09:36;24.40;92.50
19862;DHT22;10093;48.148;8.542;2022-08-21T16:12:03;24.20;92.50
19862;DHT22;10093;48.148;8.542;2022-08-21T16:14:30;24.20;93.00
19862;DHT22;10093;48.148;8.542;2022-08-21T16:16:56;24.30;93.10
19862;DHT22;10093;48.148;8.542;2022-08-21T16:19:28;24.60;94.10
19862;DHT22;10093;48.148;8.542;2022-08-21T16:21:54;24.80;95.00
19862;DHT22;10093;48.148;8.542;2022-08-21T16:24:20;24.70;94.00
19862;DHT22;10093;48.148;8.542;2022-08-21T16:26:46;24.50;93.30
19862;DHT22;10093;48.148;8.542;2022-08-21T16:29:13;24.60;94.60
19862;DHT22;10093;48.148;8.542;2022-08-21T16:31:38;24.90;94.00
19862;DHT22;10093;48.148;8.542;2022-08-21T16:34:04;25.00;94.30
19862;DHT22;10093;48.148;8.542;2022-08-21T16:36:30;24.90;95.50
19862;DHT22;10093;48.148;8.542;2022-08-21T16:38:57;24.70;95.70
19862;DHT22;10093;48.148;8.542;2022-08-21T16:41:25;24.60;96.40
19862;DHT22;10093;48.148;8.542;2022-08-21T16:43:51;24.20;96.60
19862;DHT22;10093;48.148;8.542;2022-08-21T16:46:18;23.90;98.10
19862;DHT22;10093;48.148;8.542;2022-08-21T16:48:45;23.90;97.70
19862;DHT22;10093;48.148;8.542;2022-08-21T16:51:12;23.70;98.90
19862;DHT22;10093;48.148;8.542;2022-08-21T16:53:38;23.60;99.50
19862;DHT22;10093;48.148;8.542;2022-08-21T16:56:04;23.40;95.90
19862;DHT22;10093;48.148;8.542;2022-08-21T16:58:37;23.30;95.80
19862;DHT22;10093;48.148;8.542;2022-08-21T17:01:06;23.30;96.10
19862;DHT22;10093;48.148;8.542;2022-08-21T17:03:40;23.20;98.90